sensor_id;sensor_type;location;lat;lon;timestamp;P1;durP1;ratioP1;P2;durP2;ratioP2
6053;SDS011;3055;50.886;14.814;2023-02-22T00:00:24;4.60;;;3.23;;
6053;SDS011;3055;50.886;14.814;2023-02-22T00:03:01;3.40;;;2.60;;
6053;SDS011;3055;50.886;14.814;2023-02-22T00:05:29;3.10;;;2.57;;
6053;SDS011;3055;50.886;14.814;2023-02-22T00:07:56;4.13;;;2.97;;
6053;SDS011;3055;50.886;14.814;2023-02-22T00:10:25;3.50;;;3.20;;
6053;SDS011;3055;50.886;14.814;2023-02-22T00:12:53;4.40;;;3.17;;
6053;SDS011;3055;50.886;14.814;2023-02-22T00:15:21;7.03;;;3.50;;
6053;SDS011;3055;50.886;14.814;2023-02-22T00:17:52;5.13;;;3.37;;
6053;SDS011;3055;50.886;14.814;2023-02-22T00:20:21;6.43;;;3.80;;
6053;SDS011;3055;50.886;14.814;2023-02-22T00:22:50;8.10;;;3.97;;
6053;SDS011;3055;50.886;14.814;2023-02-22T00:25:20;4.37;;;3.77;;
6053;SDS011;3055;50.886;14.814;2023-02-22T00:27:49;5.83;;;3.93;;
6053;SDS011;3055;50.886;14.814;2023-02-22T00:30:18;7.83;;;4.57;;
6053;SDS011;3055;50.886;14.814;2023-02-22T00:32:48;7.63;;;5.70;;
6053;SDS011;3055;50.886;14.814;2023-02-22T00:35:16;7.33;;;5.40;;
6053;SDS011;3055;50.886;14.814;2023-02-22T00:37:45;8.10;;;5.40;;
6053;SDS011;3055;50.886;14.814;2023-02-22T00:40:15;9.07;;;6.00;;
6053;SDS011;3055;50.886;14.814;2023-02-22T00:42:44;11.87;;;6.60;;
6053;SDS011;3055;50.886;14.814;2023-02-22T00:45:11;16.93;;;6.00;;
6053;SDS011;3055;50.886;14.814;2023-02-22T00:47:41;11.40;;;6.30;;
6053;SDS011;3055;50.886;14.814;2023-02-22T00:50:08;14.33;;;6.37;;
6053;SDS011;3055;50.886;14.814;2023-02-22T00:52:36;11.80;;;7.10;;
6053;SDS011;3055;50.886;14.814;2023-02-22T00:55:04;12.97;;;6.17;;
6053;SDS011;3055;50.886;14.814;2023-02-22T00:57:33;16.93;;;5.83;;
6053;SDS011;3055;50.886;14.814;2023-02-22T01:00:00;12.30;;;5.40;;
6053;SDS011;3055;50.886;14.814;2023-02-22T01:02:36;8.13;;;4.70;;
6053;SDS011;3055;50.886;14.814;2023-02-22T01:05:04;11.43;;;5.60;;
6053;SDS011;3055;50.886;14.814;2023-02-22T01:07:31;14.07;;;6.40;;
6053;SDS011;3055;50.886;14.814;2023-02-22T01:09:58;13.83;;;5.23;;
6053;SDS011;3055;50.886;14.814;2023-02-22T01:12:26;10.93;;;4.43;;
6053;SDS011;3055;50.886;14.814;2023-02-22T01:14:54;10.23;;;4.67;;
6053;SDS011;3055;50.886;14.814;2023-02-22T01:17:22;12.67;;;5.43;;
6053;SDS011;3055;50.886;14.814;2023-02-22T01:19:49;14.67;;;4.87;;
6053;SDS011;3055;50.886;14.814;2023-02-22T01:22:17;14.47;;;5.13;;
6053;SDS011;3055;50.886;14.814;2023-02-22T01:24:45;11.43;;;5.00;;
6053;SDS011;3055;50.886;14.814;2023-02-22T01:27:12;11.40;;;5.17;;
6053;SDS011;3055;50.886;14.814;2023-02-22T01:29:40;12.67;;;5.93;;
6053;SDS011;3055;50.886;14.814;2023-02-22T01:32:08;9.53;;;4.73;;
6053;SDS011;3055;50.886;14.814;2023-02-22T01:34:36;13.60;;;5.27;;
6053;SDS011;3055;50.886;14.814;2023-02-22T01:37:04;15.37;;;5.03;;
6053;SDS011;3055;50.886;14.814;2023-02-22T01:39:31;10.23;;;5.27;;
6053;SDS011;3055;50.886;14.814;2023-02-22T01:41:59;10.87;;;4.67;;
6053;SDS011;3055;50.886;14.814;2023-02-22T01:44:27;10.20;;;5.00;;
6053;SDS011;3055;50.886;14.814;2023-02-22T01:46:57;11.00;;;5.33;;
6053;SDS011;3055;50.886;14.814;2023-02-22T01:49:28;10.93;;;5.63;;
6053;SDS011;3055;50.886;14.814;2023-02-22T01:52:01;12.63;;;5.37;;
6053;SDS011;3055;50.886;14.814;2023-02-22T01:54:33;16.63;;;5.43;;
6053;SDS011;3055;50.886;14.814;2023-02-22T01:57:03;14.37;;;4.70;;
6053;SDS011;3055;50.886;14.814;2023-02-22T01:59:37;11.70;;;6.10;;
6053;SDS011;3055;50.886;14.814;2023-02-22T02:02:09;16.63;;;6.30;;
6053;SDS011;3055;50.886;14.814;2023-02-22T02:04:39;11.83;;;5.57;;
6053;SDS011;3055;50.886;14.814;2023-02-22T02:07:08;9.30;;;5.30;;
6053;SDS011;3055;50.886;14.814;2023-02-22T02:09:39;16.60;;;6.03;;
6053;SDS011;3055;50.886;14.814;2023-02-22T02:12:10;9.83;;;4.67;;
6053;SDS011;3055;50.886;14.814;2023-02-22T02:14:39;13.07;;;5.27;;
6053;SDS011;3055;50.886;14.814;2023-02-22T02:17:08;15.60;;;5.23;;
6053;SDS011;3055;50.886;14.814;2023-02-22T02:19:44;9.93;;;5.23;;
6053;SDS011;3055;50.886;14.814;2023-02-22T02:22:24;9.63;;;4.60;;
6053;SDS011;3055;50.886;14.814;2023-02-22T02:34:11;14.33;;;5.70;;
6053;SDS011;3055;50.886;14.814;2023-02-22T02:36:45;14.40;;;5.70;;
6053;SDS011;3055;50.886;14.814;2023-02-22T02:39:23;12.43;;;5.13;;
6053;SDS011;3055;50.886;14.814;2023-02-22T02:41:53;14.13;;;7.20;;
6053;SDS011;3055;50.886;14.814;2023-02-22T02:44:25;15.07;;;6.77;;
6053;SDS011;3055;50.886;14.814;2023-02-22T02:46:59;32.30;;;18.10;;
6053;SDS011;3055;50.886;14.814;2023-02-22T02:49:30;31.20;;;14.73;;
6053;SDS011;3055;50.886;14.814;2023-02-22T02:52:02;28.90;;;15.10;;
6053;SDS011;3055;50.886;14.814;2023-02-22T02:54:31;22.50;;;9.87;;
6053;SDS011;3055;50.886;14.814;2023-02-22T02:57:01;12.60;;;8.57;;
6053;SDS011;3055;50.886;14.814;2023-02-22T02:59:29;14.77;;;6.93;;
6053;SDS011;3055;50.886;14.814;2023-02-22T03:02:02;17.83;;;6.80;;
6053;SDS011;3055;50.886;14.814;2023-02-22T03:04:43;13.20;;;7.00;;
6053;SDS011;3055;50.886;14.814;2023-02-22T03:07:23;20.43;;;7.67;;
6053;SDS011;3055;50.886;14.814;2023-02-22T03:10:00;13.97;;;6.33;;
6053;SDS011;3055;50.886;14.814;2023-02-22T03:12:37;7.83;;;5.33;;
6053;SDS011;3055;50.886;14.814;2023-02-22T03:15:17;19.43;;;7.97;;
6053;SDS011;3055;50.886;14.814;2023-02-22T03:17:53;18.10;;;7.03;;
6053;SDS011;3055;50.886;14.814;2023-02-22T03:20:31;12.80;;;5.60;;
6053;SDS011;3055;50.886;14.814;2023-02-22T03:23:09;11.57;;;4.70;;
6053;SDS011;3055;50.886;14.814;2023-02-22T03:25:41;14.43;;;5.20;;
6053;SDS011;3055;50.886;14.814;2023-02-22T03:28:14;17.37;;;5.87;;
6053;SDS011;3055;50.886;14.814;2023-02-22T03:30:46;15.17;;;5.30;;
6053;SDS011;3055;50.886;14.814;2023-02-22T03:33:17;11.70;;;6.53;;
6053;SDS011;3055;50.886;14.814;2023-02-22T03:35:54;10.60;;;5.60;;
6053;SDS011;3055;50.886;14.814;2023-02-22T03:38:25;13.17;;;5.87;;
6053;SDS011;3055;50.886;14.814;2023-02-22T03:40:55;10.90;;;5.70;;
6053;SDS011;3055;50.886;14.814;2023-02-22T03:43:26;13.70;;;5.77;;
6053;SDS011;3055;50.886;14.814;2023-02-22T03:45:56;11.03;;;5.30;;
6053;SDS011;3055;50.886;14.814;2023-02-22T03:48:29;14.70;;;6.17;;
6053;SDS011;3055;50.886;14.814;2023-02-22T03:51:03;10.13;;;4.73;;
6053;SDS011;3055;50.886;14.814;2023-02-22T03:53:31;12.60;;;5.93;;
6053;SDS011;3055;50.886;14.814;2023-02-22T03:56:01;11.13;;;5.20;;
6053;SDS011;3055;50.886;14.814;2023-02-22T03:58:31;13.60;;;5.53;;
6053;SDS011;3055;50.886;14.814;2023-02-22T04:01:02;12.37;;;5.63;;
6053;SDS011;3055;50.886;14.814;2023-02-22T04:03:29;11.83;;;5.10;;
6053;SDS011;3055;50.886;14.814;2023-02-22T04:05:56;9.53;;;5.47;;
6053;SDS011;3055;50.886;14.814;2023-02-22T04:08:25;12.33;;;5.33;;
6053;SDS011;3055;50.886;14.814;2023-02-22T04:10:52;15.23;;;6.00;;
6053;SDS011;3055;50.886;14.814;2023-02-22T04:13:19;15.70;;;6.33;;
6053;SDS011;3055;50.886;14.814;2023-02-22T04:15:46;14.97;;;5.93;;
6053;SDS011;3055;50.886;14.814;2023-02-22T04:18:13;12.43;;;5.80;;
6053;SDS011;3055;50.886;14.814;2023-02-22T04:20:40;13.73;;;6.13;;
6053;SDS011;3055;50.886;14.814;2023-02-22T04:23:08;14.77;;;6.53;;
6053;SDS011;3055;50.886;14.814;2023-02-22T04:25:37;14.57;;;6.00;;
6053;SDS011;3055;50.886;14.814;2023-02-22T04:28:04;13.60;;;7.93;;
6053;SDS011;3055;50.886;14.814;2023-02-22T04:30:31;16.33;;;7.50;;
6053;SDS011;3055;50.886;14.814;2023-02-22T04:32:58;15.27;;;6.73;;
6053;SDS011;3055;50.886;14.814;2023-02-22T04:35:25;14.00;;;7.17;;
6053;SDS011;3055;50.886;14.814;2023-02-22T04:37:52;12.60;;;6.37;;
6053;SDS011;3055;50.886;14.814;2023-02-22T04:40:20;16.73;;;7.97;;
6053;SDS011;3055;50.886;14.814;2023-02-22T04:42:48;16.47;;;7.53;;
6053;SDS011;3055;50.886;14.814;2023-02-22T04:45:15;17.63;;;8.50;;
6053;SDS011;3055;50.886;14.814;2023-02-22T04:47:43;19.77;;;8.20;;
6053;SDS011;3055;50.886;14.814;2023-02-22T04:50:10;20.23;;;8.00;;
6053;SDS011;3055;50.886;14.814;2023-02-22T04:52:38;15.63;;;8.50;;
6053;SDS011;3055;50.886;14.814;2023-02-22T04:55:05;14.50;;;6.50;;
6053;SDS011;3055;50.886;14.814;2023-02-22T04:57:32;10.77;;;6.40;;
6053;SDS011;3055;50.886;14.814;2023-02-22T05:00:01;9.70;;;6.00;;
6053;SDS011;3055;50.886;14.814;2023-02-22T05:02:29;12.63;;;5.40;;
6053;SDS011;3055;50.886;14.814;2023-02-22T05:04:56;9.00;;;6.30;;
6053;SDS011;3055;50.886;14.814;2023-02-22T05:07:23;8.70;;;5.27;;
6053;SDS011;3055;50.886;14.814;2023-02-22T05:09:50;10.27;;;5.03;;
6053;SDS011;3055;50.886;14.814;2023-02-22T05:12:17;12.13;;;5.57;;
6053;SDS011;3055;50.886;14.814;2023-02-22T05:14:45;9.20;;;5.47;;
6053;SDS011;3055;50.886;14.814;2023-02-22T05:17:14;11.37;;;5.63;;
6053;SDS011;3055;50.886;14.814;2023-02-22T05:19:41;12.17;;;6.23;;
6053;SDS011;3055;50.886;14.814;2023-02-22T05:22:08;8.13;;;5.20;;
6053;SDS011;3055;50.886;14.814;2023-02-22T05:24:35;9.07;;;5.30;;
6053;SDS011;3055;50.886;14.814;2023-02-22T05:27:02;10.67;;;6.47;;
6053;SDS011;3055;50.886;14.814;2023-02-22T05:29:29;8.80;;;5.93;;
6053;SDS011;3055;50.886;14.814;2023-02-22T05:31:56;8.80;;;6.30;;
6053;SDS011;3055;50.886;14.814;2023-02-22T05:34:25;13.23;;;5.93;;
6053;SDS011;3055;50.886;14.814;2023-02-22T05:36:52;9.17;;;6.10;;
6053;SDS011;3055;50.886;14.814;2023-02-22T05:39:19;9.77;;;6.27;;
6053;SDS011;3055;50.886;14.814;2023-02-22T05:41:46;9.13;;;5.73;;
6053;SDS011;3055;50.886;14.814;2023-02-22T05:44:13;7.93;;;4.93;;
6053;SDS011;3055;50.886;14.814;2023-02-22T05:46:40;8.53;;;4.93;;
6053;SDS011;3055;50.886;14.814;2023-02-22T05:49:07;7.10;;;5.13;;
6053;SDS011;3055;50.886;14.814;2023-02-22T05:51:36;8.57;;;5.50;;
6053;SDS011;3055;50.886;14.814;2023-02-22T05:54:03;9.77;;;5.40;;
6053;SDS011;3055;50.886;14.814;2023-02-22T05:56:30;7.50;;;4.63;;
6053;SDS011;3055;50.886;14.814;2023-02-22T05:58:57;8.60;;;5.30;;
6053;SDS011;3055;50.886;14.814;2023-02-22T06:01:24;8.50;;;5.80;;
6053;SDS011;3055;50.886;14.814;2023-02-22T06:03:52;9.60;;;5.33;;
6053;SDS011;3055;50.886;14.814;2023-02-22T06:06:19;10.27;;;5.53;;
6053;SDS011;3055;50.886;14.814;2023-02-22T06:08:47;6.40;;;4.77;;
6053;SDS011;3055;50.886;14.814;2023-02-22T06:11:14;7.60;;;5.23;;
6053;SDS011;3055;50.886;14.814;2023-02-22T06:13:47;8.00;;;5.97;;
6053;SDS011;3055;50.886;14.814;2023-02-22T06:16:15;8.97;;;6.37;;
6053;SDS011;3055;50.886;14.814;2023-02-22T06:18:42;7.33;;;5.33;;
6053;SDS011;3055;50.886;14.814;2023-02-22T06:21:09;6.23;;;5.63;;
6053;SDS011;3055;50.886;14.814;2023-02-22T06:23:36;7.97;;;5.60;;
6053;SDS011;3055;50.886;14.814;2023-02-22T06:26:04;8.30;;;6.17;;
6053;SDS011;3055;50.886;14.814;2023-02-22T06:28:31;10.63;;;6.37;;
6053;SDS011;3055;50.886;14.814;2023-02-22T06:30:58;8.80;;;5.83;;
6053;SDS011;3055;50.886;14.814;2023-02-22T06:33:25;11.23;;;6.60;;
6053;SDS011;3055;50.886;14.814;2023-02-22T06:35:52;8.53;;;5.67;;
6053;SDS011;3055;50.886;14.814;2023-02-22T06:38:20;9.07;;;6.07;;
6053;SDS011;3055;50.886;14.814;2023-02-22T06:40:47;5.03;;;4.50;;
6053;SDS011;3055;50.886;14.814;2023-02-22T06:43:18;8.33;;;5.17;;
6053;SDS011;3055;50.886;14.814;2023-02-22T06:45:45;11.10;;;6.20;;
6053;SDS011;3055;50.886;14.814;2023-02-22T06:48:12;8.13;;;5.63;;
6053;SDS011;3055;50.886;14.814;2023-02-22T06:50:39;9.43;;;6.20;;
6053;SDS011;3055;50.886;14.814;2023-02-22T06:53:06;11.27;;;6.53;;
6053;SDS011;3055;50.886;14.814;2023-02-22T06:55:34;8.73;;;6.20;;
6053;SDS011;3055;50.886;14.814;2023-02-22T06:58:02;11.27;;;6.30;;
6053;SDS011;3055;50.886;14.814;2023-02-22T07:00:31;8.37;;;6.00;;
6053;SDS011;3055;50.886;14.814;2023-02-22T07:02:58;8.00;;;6.47;;
6053;SDS011;3055;50.886;14.814;2023-02-22T07:05:26;9.93;;;7.17;;
6053;SDS011;3055;50.886;14.814;2023-02-22T07:07:54;7.40;;;5.83;;
6053;SDS011;3055;50.886;14.814;2023-02-22T07:10:28;7.83;;;6.17;;
6053;SDS011;3055;50.886;14.814;2023-02-22T07:12:57;10.93;;;5.73;;
6053;SDS011;3055;50.886;14.814;2023-02-22T07:15:25;8.37;;;5.97;;
6053;SDS011;3055;50.886;14.814;2023-02-22T07:17:55;8.27;;;5.37;;
6053;SDS011;3055;50.886;14.814;2023-02-22T07:20:22;8.47;;;5.87;;
6053;SDS011;3055;50.886;14.814;2023-02-22T07:22:50;6.60;;;5.10;;
6053;SDS011;3055;50.886;14.814;2023-02-22T07:25:18;7.90;;;5.57;;
6053;SDS011;3055;50.886;14.814;2023-02-22T07:27:45;7.33;;;5.00;;
6053;SDS011;3055;50.886;14.814;2023-02-22T07:30:16;8.03;;;5.53;;
6053;SDS011;3055;50.886;14.814;2023-02-22T07:32:45;14.37;;;12.87;;
6053;SDS011;3055;50.886;14.814;2023-02-22T07:35:17;10.43;;;5.53;;
6053;SDS011;3055;50.886;14.814;2023-02-22T07:37:46;7.70;;;5.70;;
6053;SDS011;3055;50.886;14.814;2023-02-22T07:40:13;8.37;;;7.03;;
6053;SDS011;3055;50.886;14.814;2023-02-22T07:42:53;9.07;;;6.00;;
6053;SDS011;3055;50.886;14.814;2023-02-22T07:45:22;6.90;;;6.20;;
6053;SDS011;3055;50.886;14.814;2023-02-22T07:47:49;8.40;;;6.80;;
6053;SDS011;3055;50.886;14.814;2023-02-22T07:50:18;7.80;;;5.67;;
6053;SDS011;3055;50.886;14.814;2023-02-22T07:52:47;10.17;;;8.43;;
6053;SDS011;3055;50.886;14.814;2023-02-22T07:55:16;8.47;;;5.70;;
6053;SDS011;3055;50.886;14.814;2023-02-22T07:57:44;6.77;;;5.23;;
6053;SDS011;3055;50.886;14.814;2023-02-22T08:00:12;8.77;;;6.23;;
6053;SDS011;3055;50.886;14.814;2023-02-22T08:02:41;6.90;;;5.57;;
6053;SDS011;3055;50.886;14.814;2023-02-22T08:05:09;8.87;;;7.03;;
6053;SDS011;3055;50.886;14.814;2023-02-22T08:07:38;7.60;;;6.63;;
6053;SDS011;3055;50.886;14.814;2023-02-22T08:10:07;8.93;;;6.60;;
6053;SDS011;3055;50.886;14.814;2023-02-22T08:12:35;8.83;;;6.30;;
6053;SDS011;3055;50.886;14.814;2023-02-22T08:15:04;11.00;;;7.73;;
6053;SDS011;3055;50.886;14.814;2023-02-22T08:17:33;9.10;;;7.80;;
6053;SDS011;3055;50.886;14.814;2023-02-22T08:20:00;8.30;;;7.13;;
6053;SDS011;3055;50.886;14.814;2023-02-22T08:22:27;7.90;;;6.37;;
6053;SDS011;3055;50.886;14.814;2023-02-22T08:24:55;8.03;;;7.17;;
6053;SDS011;3055;50.886;14.814;2023-02-22T08:27:23;8.10;;;6.93;;
6053;SDS011;3055;50.886;14.814;2023-02-22T08:29:50;10.27;;;7.37;;
6053;SDS011;3055;50.886;14.814;2023-02-22T08:32:17;8.20;;;6.87;;
6053;SDS011;3055;50.886;14.814;2023-02-22T08:34:45;9.33;;;6.27;;
6053;SDS011;3055;50.886;14.814;2023-02-22T08:37:12;9.47;;;6.77;;
6053;SDS011;3055;50.886;14.814;2023-02-22T08:39:39;13.43;;;7.80;;
6053;SDS011;3055;50.886;14.814;2023-02-22T08:42:08;12.57;;;9.63;;
6053;SDS011;3055;50.886;14.814;2023-02-22T08:44:43;12.10;;;9.20;;
6053;SDS011;3055;50.886;14.814;2023-02-22T08:47:13;11.03;;;8.17;;
6053;SDS011;3055;50.886;14.814;2023-02-22T08:49:41;10.93;;;8.50;;
6053;SDS011;3055;50.886;14.814;2023-02-22T08:52:08;9.13;;;6.93;;
6053;SDS011;3055;50.886;14.814;2023-02-22T08:54:38;9.70;;;7.57;;
6053;SDS011;3055;50.886;14.814;2023-02-22T08:57:10;9.03;;;7.30;;
6053;SDS011;3055;50.886;14.814;2023-02-22T08:59:37;11.90;;;7.37;;
6053;SDS011;3055;50.886;14.814;2023-02-22T09:02:04;9.10;;;7.20;;
6053;SDS011;3055;50.886;14.814;2023-02-22T09:04:31;9.40;;;6.97;;
6053;SDS011;3055;50.886;14.814;2023-02-22T09:06:58;9.57;;;7.50;;
6053;SDS011;3055;50.886;14.814;2023-02-22T09:09:25;8.17;;;7.20;;
6053;SDS011;3055;50.886;14.814;2023-02-22T09:11:52;8.03;;;6.80;;
6053;SDS011;3055;50.886;14.814;2023-02-22T09:14:21;8.27;;;6.90;;
6053;SDS011;3055;50.886;14.814;2023-02-22T09:16:48;10.33;;;6.80;;
6053;SDS011;3055;50.886;14.814;2023-02-22T09:19:15;9.33;;;6.90;;
6053;SDS011;3055;50.886;14.814;2023-02-22T09:21:42;12.33;;;7.90;;
6053;SDS011;3055;50.886;14.814;2023-02-22T09:24:09;11.27;;;8.43;;
6053;SDS011;3055;50.886;14.814;2023-02-22T09:26:37;9.50;;;7.77;;
6053;SDS011;3055;50.886;14.814;2023-02-22T09:29:05;9.00;;;7.67;;
6053;SDS011;3055;50.886;14.814;2023-02-22T09:31:35;8.37;;;6.93;;
6053;SDS011;3055;50.886;14.814;2023-02-22T09:34:03;10.33;;;7.07;;
6053;SDS011;3055;50.886;14.814;2023-02-22T09:36:38;8.23;;;6.33;;
6053;SDS011;3055;50.886;14.814;2023-02-22T09:39:05;8.80;;;7.27;;
6053;SDS011;3055;50.886;14.814;2023-02-22T09:41:34;9.53;;;6.67;;
6053;SDS011;3055;50.886;14.814;2023-02-22T09:44:08;12.83;;;8.20;;
6053;SDS011;3055;50.886;14.814;2023-02-22T09:46:43;9.90;;;6.83;;
6053;SDS011;3055;50.886;14.814;2023-02-22T09:49:16;12.73;;;7.57;;
6053;SDS011;3055;50.886;14.814;2023-02-22T09:51:47;10.03;;;7.20;;
6053;SDS011;3055;50.886;14.814;2023-02-22T09:54:20;11.67;;;7.10;;
6053;SDS011;3055;50.886;14.814;2023-02-22T09:56:50;8.57;;;6.83;;
6053;SDS011;3055;50.886;14.814;2023-02-22T09:59:22;8.53;;;6.90;;
6053;SDS011;3055;50.886;14.814;2023-02-22T10:01:56;10.27;;;7.17;;
6053;SDS011;3055;50.886;14.814;2023-02-22T10:04:35;8.83;;;6.20;;
6053;SDS011;3055;50.886;14.814;2023-02-22T10:07:10;11.80;;;7.87;;
6053;SDS011;3055;50.886;14.814;2023-02-22T10:09:42;10.07;;;7.23;;
6053;SDS011;3055;50.886;14.814;2023-02-22T10:12:14;7.93;;;7.13;;
6053;SDS011;3055;50.886;14.814;2023-02-22T10:14:59;9.77;;;7.47;;
6053;SDS011;3055;50.886;14.814;2023-02-22T10:17:56;12.20;;;9.20;;
6053;SDS011;3055;50.886;14.814;2023-02-22T10:20:41;10.17;;;8.00;;
6053;SDS011;3055;50.886;14.814;2023-02-22T10:23:20;12.73;;;11.40;;
6053;SDS011;3055;50.886;14.814;2023-02-22T10:25:55;11.70;;;10.50;;
6053;SDS011;3055;50.886;14.814;2023-02-22T10:28:33;11.07;;;8.17;;
6053;SDS011;3055;50.886;14.814;2023-02-22T10:31:04;9.80;;;7.73;;
6053;SDS011;3055;50.886;14.814;2023-02-22T10:33:37;9.30;;;7.70;;
6053;SDS011;3055;50.886;14.814;2023-02-22T10:36:08;7.80;;;7.10;;
6053;SDS011;3055;50.886;14.814;2023-02-22T10:38:42;8.50;;;7.23;;
6053;SDS011;3055;50.886;14.814;2023-02-22T10:41:18;9.70;;;8.00;;
6053;SDS011;3055;50.886;14.814;2023-02-22T10:43:49;9.00;;;7.17;;
6053;SDS011;3055;50.886;14.814;2023-02-22T10:46:17;10.47;;;8.30;;
6053;SDS011;3055;50.886;14.814;2023-02-22T10:48:47;10.00;;;8.10;;
6053;SDS011;3055;50.886;14.814;2023-02-22T10:51:19;10.17;;;8.53;;
6053;SDS011;3055;50.886;14.814;2023-02-22T10:53:52;8.10;;;6.80;;
6053;SDS011;3055;50.886;14.814;2023-02-22T10:56:24;10.03;;;8.20;;
6053;SDS011;3055;50.886;14.814;2023-02-22T10:58:54;15.67;;;11.40;;
6053;SDS011;3055;50.886;14.814;2023-02-22T11:01:27;28.90;;;23.77;;
6053;SDS011;3055;50.886;14.814;2023-02-22T11:04:04;19.80;;;18.10;;
6053;SDS011;3055;50.886;14.814;2023-02-22T11:06:36;11.53;;;10.30;;
6053;SDS011;3055;50.886;14.814;2023-02-22T11:09:06;11.23;;;8.77;;
6053;SDS011;3055;50.886;14.814;2023-02-22T11:11:35;11.17;;;8.27;;
6053;SDS011;3055;50.886;14.814;2023-02-22T11:14:03;9.23;;;8.07;;
6053;SDS011;3055;50.886;14.814;2023-02-22T11:16:32;11.13;;;8.87;;
6053;SDS011;3055;50.886;14.814;2023-02-22T11:19:07;15.07;;;11.27;;
6053;SDS011;3055;50.886;14.814;2023-02-22T11:21:44;19.40;;;13.80;;
6053;SDS011;3055;50.886;14.814;2023-02-22T11:24:12;26.27;;;17.40;;
6053;SDS011;3055;50.886;14.814;2023-02-22T11:26:41;21.83;;;16.83;;
6053;SDS011;3055;50.886;14.814;2023-02-22T11:29:11;18.53;;;15.07;;
6053;SDS011;3055;50.886;14.814;2023-02-22T11:31:45;19.83;;;14.37;;
6053;SDS011;3055;50.886;14.814;2023-02-22T11:34:34;18.40;;;14.40;;
6053;SDS011;3055;50.886;14.814;2023-02-22T11:40:04;18.23;;;13.53;;
6053;SDS011;3055;50.886;14.814;2023-02-22T11:42:36;18.23;;;14.07;;
6053;SDS011;3055;50.886;14.814;2023-02-22T11:45:07;19.90;;;15.00;;
6053;SDS011;3055;50.886;14.814;2023-02-22T11:47:44;18.27;;;14.23;;
6053;SDS011;3055;50.886;14.814;2023-02-22T11:50:24;22.03;;;14.00;;
6053;SDS011;3055;50.886;14.814;2023-02-22T11:52:57;19.33;;;13.13;;
6053;SDS011;3055;50.886;14.814;2023-02-22T11:55:40;17.90;;;13.83;;
6053;SDS011;3055;50.886;14.814;2023-02-22T11:58:20;17.97;;;11.90;;
6053;SDS011;3055;50.886;14.814;2023-02-22T12:00:56;18.90;;;12.50;;
6053;SDS011;3055;50.886;14.814;2023-02-22T12:03:38;20.67;;;12.57;;
6053;SDS011;3055;50.886;14.814;2023-02-22T12:06:45;21.90;;;14.07;;
6053;SDS011;3055;50.886;14.814;2023-02-22T12:09:23;19.57;;;12.50;;
6053;SDS011;3055;50.886;14.814;2023-02-22T12:12:02;18.00;;;12.97;;
6053;SDS011;3055;50.886;14.814;2023-02-22T12:14:39;21.10;;;12.80;;
6053;SDS011;3055;50.886;14.814;2023-02-22T12:17:17;23.00;;;12.80;;
6053;SDS011;3055;50.886;14.814;2023-02-22T12:19:50;19.47;;;12.80;;
6053;SDS011;3055;50.886;14.814;2023-02-22T12:22:25;17.37;;;11.73;;
6053;SDS011;3055;50.886;14.814;2023-02-22T12:24:55;22.03;;;12.50;;
6053;SDS011;3055;50.886;14.814;2023-02-22T12:27:28;16.90;;;11.53;;
6053;SDS011;3055;50.886;14.814;2023-02-22T12:30:00;17.70;;;11.83;;
6053;SDS011;3055;50.886;14.814;2023-02-22T12:32:33;15.60;;;11.10;;
6053;SDS011;3055;50.886;14.814;2023-02-22T12:35:08;17.43;;;11.90;;
6053;SDS011;3055;50.886;14.814;2023-02-22T12:37:46;15.33;;;11.17;;
6053;SDS011;3055;50.886;14.814;2023-02-22T12:40:19;15.60;;;10.17;;
6053;SDS011;3055;50.886;14.814;2023-02-22T12:42:54;14.97;;;10.70;;
6053;SDS011;3055;50.886;14.814;2023-02-22T12:45:27;16.30;;;10.50;;
6053;SDS011;3055;50.886;14.814;2023-02-22T12:47:59;13.20;;;10.90;;
6053;SDS011;3055;50.886;14.814;2023-02-22T12:50:35;14.70;;;10.00;;
6053;SDS011;3055;50.886;14.814;2023-02-22T12:53:07;13.50;;;10.10;;
6053;SDS011;3055;50.886;14.814;2023-02-22T12:55:40;16.63;;;11.40;;
6053;SDS011;3055;50.886;14.814;2023-02-22T12:58:17;17.67;;;10.87;;
6053;SDS011;3055;50.886;14.814;2023-02-22T13:00:50;13.90;;;10.07;;
6053;SDS011;3055;50.886;14.814;2023-02-22T13:03:26;13.67;;;10.47;;
6053;SDS011;3055;50.886;14.814;2023-02-22T13:06:01;16.87;;;11.83;;
6053;SDS011;3055;50.886;14.814;2023-02-22T13:08:52;15.73;;;11.67;;
6053;SDS011;3055;50.886;14.814;2023-02-22T13:11:40;13.27;;;10.30;;
6053;SDS011;3055;50.886;14.814;2023-02-22T13:14:18;14.13;;;10.50;;
6053;SDS011;3055;50.886;14.814;2023-02-22T13:17:00;14.10;;;10.73;;
6053;SDS011;3055;50.886;14.814;2023-02-22T13:19:34;15.33;;;9.37;;
6053;SDS011;3055;50.886;14.814;2023-02-22T13:22:11;18.83;;;10.80;;
6053;SDS011;3055;50.886;14.814;2023-02-22T13:24:45;18.17;;;11.40;;
6053;SDS011;3055;50.886;14.814;2023-02-22T13:27:25;16.57;;;10.63;;
6053;SDS011;3055;50.886;14.814;2023-02-22T13:29:58;12.23;;;9.43;;
6053;SDS011;3055;50.886;14.814;2023-02-22T13:32:32;16.00;;;10.47;;
6053;SDS011;3055;50.886;14.814;2023-02-22T13:35:16;15.53;;;10.33;;
6053;SDS011;3055;50.886;14.814;2023-02-22T13:38:05;16.37;;;10.10;;
6053;SDS011;3055;50.886;14.814;2023-02-22T13:40:53;14.73;;;10.23;;
6053;SDS011;3055;50.886;14.814;2023-02-22T13:49:48;12.60;;;9.37;;
6053;SDS011;3055;50.886;14.814;2023-02-22T13:52:21;15.90;;;10.40;;
6053;SDS011;3055;50.886;14.814;2023-02-22T13:54:51;13.70;;;9.47;;
6053;SDS011;3055;50.886;14.814;2023-02-22T13:57:25;11.70;;;8.93;;
6053;SDS011;3055;50.886;14.814;2023-02-22T14:02:57;12.67;;;9.67;;
6053;SDS011;3055;50.886;14.814;2023-02-22T14:14:22;24.73;;;10.63;;
6053;SDS011;3055;50.886;14.814;2023-02-22T14:20:02;11.93;;;8.33;;
6053;SDS011;3055;50.886;14.814;2023-02-22T14:22:39;11.17;;;8.07;;
6053;SDS011;3055;50.886;14.814;2023-02-22T14:27:56;17.23;;;9.23;;
6053;SDS011;3055;50.886;14.814;2023-02-22T14:30:25;10.10;;;8.47;;
6053;SDS011;3055;50.886;14.814;2023-02-22T14:32:54;13.77;;;10.90;;
6053;SDS011;3055;50.886;14.814;2023-02-22T14:35:21;13.50;;;10.83;;
6053;SDS011;3055;50.886;14.814;2023-02-22T14:37:51;17.07;;;12.83;;
6053;SDS011;3055;50.886;14.814;2023-02-22T14:40:22;15.00;;;11.27;;
6053;SDS011;3055;50.886;14.814;2023-02-22T14:42:56;11.03;;;9.53;;
6053;SDS011;3055;50.886;14.814;2023-02-22T14:45:29;14.07;;;9.80;;
6053;SDS011;3055;50.886;14.814;2023-02-22T14:47:59;11.63;;;9.60;;
6053;SDS011;3055;50.886;14.814;2023-02-22T14:50:38;15.43;;;8.40;;
6053;SDS011;3055;50.886;14.814;2023-02-22T14:53:17;12.73;;;7.67;;
6053;SDS011;3055;50.886;14.814;2023-02-22T14:55:50;11.20;;;8.43;;
6053;SDS011;3055;50.886;14.814;2023-02-22T14:58:22;12.27;;;8.33;;
6053;SDS011;3055;50.886;14.814;2023-02-22T15:00:55;25.70;;;9.17;;
6053;SDS011;3055;50.886;14.814;2023-02-22T15:03:26;19.47;;;8.60;;
6053;SDS011;3055;50.886;14.814;2023-02-22T15:06:02;22.43;;;9.43;;
6053;SDS011;3055;50.886;14.814;2023-02-22T15:08:30;39.47;;;9.53;;
6053;SDS011;3055;50.886;14.814;2023-02-22T15:10:58;27.77;;;9.83;;
6053;SDS011;3055;50.886;14.814;2023-02-22T15:13:28;37.77;;;10.17;;
6053;SDS011;3055;50.886;14.814;2023-02-22T15:16:00;37.10;;;10.13;;
6053;SDS011;3055;50.886;14.814;2023-02-22T15:18:32;18.37;;;7.77;;
6053;SDS011;3055;50.886;14.814;2023-02-22T15:21:03;16.57;;;7.97;;
6053;SDS011;3055;50.886;14.814;2023-02-22T15:23:38;14.67;;;7.67;;
6053;SDS011;3055;50.886;14.814;2023-02-22T15:26:07;13.67;;;8.80;;
6053;SDS011;3055;50.886;14.814;2023-02-22T15:28:41;15.20;;;8.20;;
6053;SDS011;3055;50.886;14.814;2023-02-22T15:31:20;11.37;;;7.87;;
6053;SDS011;3055;50.886;14.814;2023-02-22T15:33:50;11.93;;;7.97;;
6053;SDS011;3055;50.886;14.814;2023-02-22T15:36:20;13.27;;;8.87;;
6053;SDS011;3055;50.886;14.814;2023-02-22T15:38:51;31.93;;;10.97;;
6053;SDS011;3055;50.886;14.814;2023-02-22T15:41:21;15.50;;;9.43;;
6053;SDS011;3055;50.886;14.814;2023-02-22T15:43:57;19.73;;;10.07;;
6053;SDS011;3055;50.886;14.814;2023-02-22T15:46:28;18.37;;;11.70;;
6053;SDS011;3055;50.886;14.814;2023-02-22T15:49:05;16.83;;;9.70;;